createdAt,value
2022-11-07T00:01:24.359Z,79.82
2022-11-07T00:03:45.974Z,81.45
2022-11-07T00:06:08.058Z,81.37
2022-11-07T00:08:32.130Z,81.25
2022-11-07T00:10:54.682Z,80.87
2022-11-07T00:13:16.487Z,82.04
2022-11-07T00:15:38.240Z,81.51
2022-11-07T00:17:59.722Z,81.84
2022-11-07T00:20:21.200Z,81.58
2022-11-07T00:22:42.674Z,81.57
2022-11-07T00:25:04.533Z,82.03
2022-11-07T00:27:26.031Z,81.02
2022-11-07T00:29:47.610Z,79.34
2022-11-07T00:32:09.119Z,79.62
2022-11-07T00:34:32.857Z,80.74
2022-11-07T00:36:54.387Z,80.59
2022-11-07T00:39:15.919Z,79.35
2022-11-07T00:41:37.556Z,78.85
2022-11-07T00:43:59.025Z,79.76
2022-11-07T00:46:21.178Z,80.59
2022-11-07T00:48:43.036Z,81.78
2022-11-07T00:51:06.219Z,81.79
2022-11-07T00:53:27.680Z,80.51
2022-11-07T00:55:49.206Z,81.16
2022-11-07T00:58:13.835Z,82.84
2022-11-07T01:00:37.129Z,81.96
2022-11-07T01:03:17.163Z,83.09
2022-11-07T01:05:38.974Z,83.75
2022-11-07T01:08:00.454Z,83.37
2022-11-07T01:10:21.973Z,82.80
2022-11-07T01:12:44.053Z,82.83
2022-11-07T01:15:05.936Z,82.52
2022-11-07T01:17:27.405Z,82.53
2022-11-07T01:19:48.874Z,83.86
2022-11-07T01:22:11.590Z,84.21
2022-11-07T01:24:33.070Z,84.77
2022-11-07T01:26:54.498Z,83.88
2022-11-07T01:29:17.194Z,83.99
2022-11-07T01:31:38.678Z,84.11
2022-11-07T01:34:00.993Z,85.71
2022-11-07T01:36:22.467Z,84.75
2022-11-07T01:38:48.488Z,85.49
2022-11-07T01:41:21.930Z,84.69
2022-11-07T01:43:49.822Z,83.67
2022-11-07T01:46:11.386Z,84.32
2022-11-07T01:48:33.139Z,84.17
2022-11-07T01:50:54.708Z,83.20
2022-11-07T01:53:16.494Z,82.82
2022-11-07T01:55:38.232Z,81.96
2022-11-07T01:58:07.570Z,82.44
2022-11-07T02:00:29.306Z,82.59
2022-11-07T02:03:09.132Z,82.39
2022-11-07T02:05:58.987Z,81.60
2022-11-07T02:08:21.951Z,82.59
2022-11-07T02:10:44.058Z,84.55
2022-11-07T02:13:05.807Z,85.63
2022-11-07T02:15:27.396Z,85.59
2022-11-07T02:17:49.556Z,85.38
2022-11-07T02:20:11.672Z,85.21
2022-11-07T02:22:46.800Z,85.17
2022-11-07T02:25:14.211Z,85.94
2022-11-07T02:27:37.316Z,85.31
2022-11-07T02:30:06.288Z,86.06
2022-11-07T02:32:27.924Z,87.22
2022-11-07T02:35:00.138Z,88.09
2022-11-07T02:37:26.936Z,87.09
2022-11-07T02:39:48.475Z,88.69
2022-11-07T02:42:10.448Z,88.57
2022-11-07T02:44:32.873Z,88.58
2022-11-07T02:46:54.541Z,91.24
2022-11-07T02:49:16.072Z,92.61
2022-11-07T02:51:37.552Z,92.90
2022-11-07T02:53:59.048Z,93.22
2022-11-07T02:56:21.502Z,92.80
2022-11-07T02:58:43.026Z,92.83
2022-11-07T03:01:09.117Z,93.30
2022-11-07T03:03:30.735Z,92.83
2022-11-07T03:05:52.181Z,94.28
2022-11-07T03:08:13.658Z,94.48
2022-11-07T03:10:35.130Z,95.19
2022-11-07T03:12:56.650Z,95.16
2022-11-07T03:15:18.192Z,95.68
2022-11-07T03:17:40.513Z,95.70
2022-11-07T03:20:02.351Z,96.34
2022-11-07T03:22:23.842Z,96.54
2022-11-07T03:24:45.319Z,96.12
2022-11-07T03:27:06.815Z,95.60
2022-11-07T03:29:28.311Z,94.89
2022-11-07T03:31:49.804Z,94.56
2022-11-07T03:34:11.377Z,94.57
2022-11-07T03:36:34.092Z,93.68
2022-11-07T03:38:55.579Z,93.84
2022-11-07T03:41:17.446Z,93.48
2022-11-07T03:43:38.950Z,93.97
2022-11-07T03:46:00.418Z,94.16
2022-11-07T03:48:21.910Z,93.09
2022-11-07T03:50:43.375Z,92.53
2022-11-07T03:53:04.825Z,92.62
2022-11-07T03:55:26.282Z,92.34
2022-11-07T03:57:48.111Z,92.22
2022-11-07T04:00:10.599Z,90.68
2022-11-07T04:02:32.178Z,91.23
2022-11-07T04:04:53.726Z,92.50
2022-11-07T04:07:15.414Z,92.20
2022-11-07T04:09:36.887Z,91.84
2022-11-07T04:12:16.806Z,92.02
2022-11-07T04:14:56.627Z,92.34
2022-11-07T04:17:21.031Z,92.60
2022-11-07T04:19:42.546Z,92.74
2022-11-07T04:22:04.033Z,92.40
2022-11-07T04:24:25.523Z,92.77
2022-11-07T04:27:05.779Z,92.10
2022-11-07T04:29:27.262Z,91.70
2022-11-07T04:31:48.737Z,91.42
2022-11-07T04:34:10.207Z,91.35
2022-11-07T04:36:31.682Z,93.13
2022-11-07T04:38:53.135Z,93.08
2022-11-07T04:41:24.480Z,93.96
2022-11-07T04:43:45.922Z,93.39
2022-11-07T04:46:07.376Z,93.87
2022-11-07T04:48:28.846Z,93.88
2022-11-07T04:50:50.641Z,94.15
2022-11-07T04:53:13.569Z,95.88
2022-11-07T04:55:35.263Z,95.85
2022-11-07T04:57:57.455Z,95.76
2022-11-07T05:00:20.058Z,95.54
2022-11-07T05:02:42.077Z,96.17
2022-11-07T05:05:04.204Z,96.67
2022-11-07T05:07:25.704Z,96.96
2022-11-07T05:09:47.310Z,95.96
2022-11-07T05:12:08.949Z,96.51
2022-11-07T05:14:33.306Z,95.81
2022-11-07T05:16:55.121Z,96.17
2022-11-07T05:19:18.367Z,95.40
2022-11-07T05:21:39.888Z,96.06
2022-11-07T05:24:01.374Z,95.98
2022-11-07T05:26:22.856Z,95.50
2022-11-07T05:28:44.322Z,96.00
2022-11-07T05:31:07.487Z,95.82
2022-11-07T05:33:29.275Z,95.68
2022-11-07T05:35:50.766Z,95.26
2022-11-07T05:38:13.166Z,94.08
2022-11-07T05:40:35.814Z,94.37
2022-11-07T05:43:01.718Z,94.75
2022-11-07T05:45:23.167Z,94.76
2022-11-07T05:47:44.753Z,93.15
2022-11-07T05:50:06.755Z,92.80
2022-11-07T05:52:28.229Z,93.01
2022-11-07T05:54:49.682Z,93.02
2022-11-07T05:57:11.166Z,92.62
2022-11-07T05:59:32.656Z,93.06
2022-11-07T06:01:54.296Z,92.56
2022-11-07T06:04:15.928Z,92.62
2022-11-07T06:06:37.490Z,92.68
2022-11-07T06:08:59.096Z,92.30
2022-11-07T06:11:20.556Z,91.10
2022-11-07T06:13:41.985Z,90.42
2022-11-07T06:16:03.975Z,90.46
2022-11-07T06:18:25.553Z,90.16
2022-11-07T06:20:47.081Z,90.03
2022-11-07T06:23:08.926Z,90.98
2022-11-07T06:25:30.657Z,90.43
2022-11-07T06:27:52.291Z,90.39
2022-11-07T06:30:13.773Z,89.65
2022-11-07T06:32:36.573Z,88.09
2022-11-07T06:34:58.126Z,89.05
2022-11-07T06:37:20.063Z,88.91
2022-11-07T06:39:41.519Z,89.03
2022-11-07T06:42:03.089Z,89.31
2022-11-07T06:44:24.534Z,88.62
2022-11-07T06:46:48.651Z,88.99
2022-11-07T06:49:11.267Z,89.07
2022-11-07T06:51:32.757Z,87.68
2022-11-07T06:53:54.413Z,88.72
2022-11-07T06:56:16.465Z,88.22
2022-11-07T06:58:38.009Z,88.36
2022-11-07T07:01:04.194Z,87.62
2022-11-07T07:03:25.678Z,87.27
2022-11-07T07:05:47.148Z,88.48
2022-11-07T07:08:13.030Z,88.14
2022-11-07T07:10:44.827Z,88.15
2022-11-07T07:13:06.596Z,87.28
2022-11-07T07:15:28.176Z,87.38
2022-11-07T07:17:49.656Z,87.72
2022-11-07T07:20:11.599Z,87.65
2022-11-07T07:22:33.087Z,86.21
2022-11-07T07:24:54.626Z,85.75
2022-11-07T07:27:16.134Z,84.90
2022-11-07T07:29:37.599Z,84.52
2022-11-07T07:31:59.058Z,84.08
2022-11-07T07:34:20.553Z,85.08
2022-11-07T07:36:42.072Z,84.89
2022-11-07T07:39:03.656Z,85.29
2022-11-07T07:41:25.174Z,86.23
2022-11-07T07:43:46.739Z,86.54
2022-11-07T07:46:08.972Z,85.02
2022-11-07T07:48:31.375Z,85.47
2022-11-07T07:50:52.973Z,85.22
2022-11-07T07:53:14.719Z,86.09
2022-11-07T07:55:36.361Z,84.11
2022-11-07T07:57:57.833Z,83.80
2022-11-07T08:00:19.842Z,85.00
2022-11-07T08:02:43.892Z,86.04
2022-11-07T08:05:05.931Z,87.67
2022-11-07T08:07:27.521Z,87.43
2022-11-07T08:09:48.993Z,87.36
2022-11-07T08:12:10.454Z,88.50
2022-11-07T08:14:32.810Z,87.24
2022-11-07T08:16:54.257Z,86.94
2022-11-07T08:19:15.753Z,87.43
2022-11-07T08:21:37.206Z,86.70
2022-11-07T08:23:58.699Z,86.75
2022-11-07T08:26:20.590Z,87.59
2022-11-07T08:28:42.050Z,86.30
2022-11-07T08:31:09.760Z,87.37
2022-11-07T08:33:31.625Z,86.46
2022-11-07T08:35:57.738Z,87.91
2022-11-07T08:38:19.190Z,86.88
2022-11-07T08:40:40.872Z,87.66
2022-11-07T08:43:02.326Z,88.06
2022-11-07T08:45:23.816Z,87.93
2022-11-07T08:47:45.368Z,87.59
2022-11-07T08:50:08.043Z,86.34
2022-11-07T08:52:29.546Z,86.08
2022-11-07T08:54:51.074Z,86.28
2022-11-07T08:57:12.555Z,86.42
2022-11-07T08:59:34.029Z,86.58
2022-11-07T09:02:36.989Z,85.05
2022-11-07T09:04:37.730Z,85.38
2022-11-07T09:06:59.258Z,84.37
2022-11-07T09:09:20.767Z,84.30
2022-11-07T09:11:42.533Z,83.90
2022-11-07T09:14:04.346Z,82.48
2022-11-07T09:16:25.865Z,82.57
2022-11-07T09:18:48.952Z,81.97
2022-11-07T09:21:11.198Z,80.75
2022-11-07T09:23:32.728Z,82.63
2022-11-07T09:25:54.677Z,82.59
2022-11-07T09:28:16.371Z,82.42
2022-11-07T09:30:37.870Z,82.99
2022-11-07T09:32:59.349Z,83.63
2022-11-07T09:35:20.850Z,83.80
2022-11-07T09:37:42.854Z,83.94
2022-11-07T09:40:05.209Z,83.80
2022-11-07T09:42:50.609Z,81.21
2022-11-07T09:45:13.869Z,80.48
2022-11-07T09:48:00.138Z,79.83
2022-11-07T09:50:34.036Z,80.12
2022-11-07T09:52:57.882Z,79.02
2022-11-07T09:55:23.413Z,79.94
2022-11-07T09:57:45.768Z,79.08
2022-11-07T10:00:15.055Z,81.29
2022-11-07T10:02:43.546Z,80.09
2022-11-07T10:05:06.014Z,81.30
2022-11-07T10:07:42.683Z,80.58
2022-11-07T10:10:37.065Z,80.65
2022-11-07T10:13:17.152Z,79.44
2022-11-07T10:15:57.255Z,79.63
2022-11-07T10:18:52.136Z,79.34
2022-11-07T10:21:38.892Z,78.23
2022-11-07T10:24:25.421Z,78.82
2022-11-07T10:26:46.981Z,78.60
2022-11-07T10:29:20.717Z,77.38
2022-11-07T10:31:59.678Z,76.11
2022-11-07T10:34:29.146Z,77.80
2022-11-07T10:36:51.331Z,78.90
2022-11-07T10:39:18.864Z,78.72
2022-11-07T10:41:43.753Z,79.55
2022-11-07T10:44:10.607Z,79.23
2022-11-07T10:46:39.390Z,79.27
2022-11-07T10:49:03.128Z,80.45
2022-11-07T10:51:34.564Z,80.61
2022-11-07T10:53:56.066Z,81.04
2022-11-07T10:56:19.411Z,79.46
2022-11-07T10:58:44.892Z,77.89
2022-11-07T11:01:09.207Z,76.81
2022-11-07T11:03:45.380Z,76.65
2022-11-07T11:06:21.653Z,76.50
2022-11-07T11:08:43.219Z,75.22
2022-11-07T11:11:29.993Z,75.07
2022-11-07T11:14:12.142Z,76.31
2022-11-07T11:16:37.555Z,75.83
2022-11-07T11:19:01.248Z,72.58
2022-11-07T11:21:23.387Z,74.51
2022-11-07T11:23:46.845Z,73.61
2022-11-07T11:26:21.529Z,71.57
2022-11-07T11:28:48.444Z,71.99
2022-11-07T11:31:26.541Z,71.32
2022-11-07T11:33:53.896Z,69.40
2022-11-07T11:36:23.687Z,69.97
2022-11-07T11:38:55.481Z,70.82
2022-11-07T11:41:23.315Z,71.25
2022-11-07T11:43:54.403Z,72.29
2022-11-07T11:46:30.689Z,72.15
2022-11-07T11:48:57.523Z,73.66
2022-11-07T11:51:27.320Z,73.85
2022-11-07T11:53:48.957Z,73.58
2022-11-07T11:56:31.535Z,73.39
2022-11-07T11:59:28.207Z,74.33
2022-11-07T12:02:05.178Z,75.32
2022-11-07T12:04:29.626Z,75.20
2022-11-07T12:07:00.462Z,76.39
2022-11-07T12:09:44.257Z,76.96
2022-11-07T12:12:25.743Z,77.62
2022-11-07T12:15:09.238Z,78.38
2022-11-07T12:17:52.676Z,79.57
2022-11-07T12:20:36.143Z,79.61
2022-11-07T12:23:03.499Z,78.63
2022-11-07T12:25:30.031Z,79.86
2022-11-07T12:28:00.228Z,78.79
2022-11-07T12:30:31.294Z,79.18
2022-11-07T12:33:15.001Z,78.51
2022-11-07T12:36:03.305Z,78.89
2022-11-07T12:39:12.428Z,79.66
2022-11-07T12:41:57.515Z,79.99
2022-11-07T12:44:34.135Z,80.94
2022-11-07T12:46:58.720Z,79.76
2022-11-07T12:49:36.162Z,80.35
2022-11-07T12:52:16.240Z,80.19
2022-11-07T12:54:56.545Z,80.12
2022-11-07T12:57:21.808Z,80.07
2022-11-07T12:59:50.387Z,78.85
2022-11-07T13:02:44.730Z,79.53
2022-11-07T13:05:18.459Z,79.70
2022-11-07T13:07:50.592Z,79.12
2022-11-07T13:10:36.994Z,79.56
2022-11-07T13:13:15.392Z,79.16
2022-11-07T13:16:09.011Z,80.58
2022-11-07T13:18:25.302Z,79.74
2022-11-07T13:20:47.148Z,78.33
2022-11-07T13:23:16.335Z,79.31
2022-11-07T13:25:39.013Z,79.94
2022-11-07T13:28:05.129Z,79.26
2022-11-07T13:30:36.039Z,80.71
2022-11-07T13:32:59.418Z,79.51
2022-11-07T13:35:23.616Z,78.15
2022-11-07T13:37:48.028Z,79.04
2022-11-07T13:40:44.834Z,77.78
2022-11-07T13:43:20.820Z,79.10
2022-11-07T13:45:45.250Z,79.93
2022-11-07T13:48:16.837Z,79.34
2022-11-07T13:50:46.675Z,79.13
2022-11-07T13:53:24.770Z,79.62
2022-11-07T13:55:56.073Z,79.27
2022-11-07T13:58:19.459Z,79.70
2022-11-07T14:00:41.046Z,80.07
2022-11-07T14:03:02.692Z,80.06
2022-11-07T14:05:30.243Z,80.61
2022-11-07T14:07:55.438Z,81.16
2022-11-07T14:10:22.249Z,78.91
2022-11-07T14:12:43.978Z,80.05
2022-11-07T14:15:06.788Z,80.88
2022-11-07T14:17:32.791Z,80.86
2022-11-07T14:20:06.080Z,80.21
2022-11-07T14:22:28.107Z,80.99
2022-11-07T14:24:55.242Z,80.65
2022-11-07T14:27:16.737Z,81.13
2022-11-07T14:29:38.425Z,81.78
2022-11-07T14:32:05.253Z,82.53
2022-11-07T14:34:27.067Z,82.42
2022-11-07T14:36:52.821Z,82.58
2022-11-07T14:39:15.926Z,82.46
2022-11-07T14:41:40.964Z,82.68
2022-11-07T14:44:04.088Z,81.78
2022-11-07T14:46:25.972Z,81.21
2022-11-07T14:48:49.679Z,81.90
2022-11-07T14:51:14.923Z,81.87
2022-11-07T14:53:47.207Z,82.40
2022-11-07T14:56:13.718Z,82.22
2022-11-07T14:58:35.443Z,82.48
2022-11-07T15:01:10.185Z,82.58
2022-11-07T15:03:34.234Z,83.21
2022-11-07T15:05:55.744Z,83.21
2022-11-07T15:08:34.586Z,84.44
2022-11-07T15:11:20.556Z,83.75
2022-11-07T15:13:42.655Z,84.16
2022-11-07T15:16:07.857Z,84.08
2022-11-07T15:18:30.203Z,84.64
2022-11-07T15:21:01.423Z,84.49
2022-11-07T15:23:22.832Z,84.71
2022-11-07T15:25:56.687Z,84.83
2022-11-07T15:28:19.974Z,84.56
2022-11-07T15:30:43.599Z,84.95
2022-11-07T15:33:06.685Z,84.96
2022-11-07T15:35:44.754Z,84.09
2022-11-07T15:38:07.351Z,84.05
2022-11-07T15:40:29.379Z,83.72
2022-11-07T15:42:50.893Z,84.25
2022-11-07T15:45:12.647Z,84.35
2022-11-07T15:47:34.937Z,84.93
2022-11-07T15:49:56.510Z,85.22
2022-11-07T15:52:17.970Z,85.55
2022-11-07T15:54:39.433Z,86.12
2022-11-07T15:57:04.495Z,86.42
2022-11-07T15:59:31.743Z,87.15
2022-11-07T16:01:53.369Z,86.82
2022-11-07T16:04:15.053Z,86.78
2022-11-07T16:06:38.935Z,87.16
2022-11-07T16:09:06.441Z,86.68
2022-11-07T16:11:27.927Z,85.94
2022-11-07T16:13:50.886Z,86.16
2022-11-07T16:16:24.457Z,86.75
2022-11-07T16:18:49.849Z,86.94
2022-11-07T16:21:11.421Z,86.38
2022-11-07T16:23:32.944Z,85.70
2022-11-07T16:25:55.525Z,84.84
2022-11-07T16:28:25.347Z,85.66
2022-11-07T16:30:46.852Z,86.35
2022-11-07T16:33:10.709Z,86.67
2022-11-07T16:35:32.151Z,86.40
2022-11-07T16:37:53.742Z,87.42
2022-11-07T16:40:18.949Z,86.70
2022-11-07T16:42:40.535Z,86.50
2022-11-07T16:45:02.398Z,86.72
2022-11-07T16:47:24.059Z,86.37
2022-11-07T16:49:45.638Z,85.67
2022-11-07T16:52:09.706Z,86.33
2022-11-07T16:54:31.198Z,86.68
2022-11-07T16:56:53.183Z,86.57
2022-11-07T16:59:22.552Z,87.03
2022-11-07T17:01:44.280Z,87.33
2022-11-07T17:04:06.267Z,87.93
2022-11-07T17:06:31.332Z,87.94
2022-11-07T17:08:52.955Z,87.87
2022-11-07T17:11:16.319Z,88.36
2022-11-07T17:13:37.796Z,87.95
2022-11-07T17:15:59.660Z,88.70
2022-11-07T17:18:22.854Z,88.45
2022-11-07T17:20:52.304Z,87.95
2022-11-07T17:23:14.707Z,88.13
2022-11-07T17:25:37.614Z,87.55
2022-11-07T17:27:59.082Z,87.31
2022-11-07T17:30:20.675Z,87.17
2022-11-07T17:32:42.141Z,86.93
2022-11-07T17:35:30.714Z,87.21
2022-11-07T17:37:45.321Z,87.34
2022-11-07T17:40:07.319Z,87.12
2022-11-07T17:42:31.541Z,86.55
2022-11-07T17:44:55.299Z,86.52
2022-11-07T17:47:34.364Z,87.01
2022-11-07T17:49:57.031Z,86.31
2022-11-07T17:52:18.482Z,86.31
2022-11-07T17:54:39.956Z,85.66
2022-11-07T17:57:03.640Z,85.00
2022-11-07T17:59:25.559Z,84.02
2022-11-07T18:01:47.286Z,84.57
2022-11-07T18:04:10.868Z,84.42
2022-11-07T18:06:37.651Z,84.10
2022-11-07T18:09:00.737Z,84.88
2022-11-07T18:11:25.740Z,84.79
2022-11-07T18:13:50.731Z,83.22
2022-11-07T18:16:18.534Z,82.88
2022-11-07T18:18:40.024Z,82.18
2022-11-07T18:21:02.328Z,82.95
2022-11-07T18:23:23.828Z,82.45
2022-11-07T18:25:45.297Z,82.82
2022-11-07T18:28:07.005Z,82.98
2022-11-07T18:30:30.099Z,83.47
2022-11-07T18:32:51.633Z,83.17
2022-11-07T18:35:13.237Z,83.11
2022-11-07T18:40:06.766Z,82.73
2022-11-07T18:42:29.269Z,83.00
2022-11-07T18:44:50.899Z,82.78
2022-11-07T18:47:12.369Z,82.55
2022-11-07T18:49:33.847Z,81.48
2022-11-07T18:51:55.389Z,81.35
2022-11-07T18:54:16.954Z,80.69
2022-11-07T18:56:39.756Z,81.14
2022-11-07T18:59:01.307Z,81.10
2022-11-07T19:01:28.624Z,81.59
2022-11-07T19:03:50.315Z,80.80
2022-11-07T19:06:14.378Z,80.88
2022-11-07T19:08:39.031Z,80.31
2022-11-07T19:11:02.586Z,80.61
2022-11-07T19:13:26.472Z,81.40
2022-11-07T19:15:47.990Z,82.69
2022-11-07T19:18:09.492Z,83.83
2022-11-07T19:20:30.970Z,85.02
2022-11-07T19:22:52.473Z,84.19
2022-11-07T19:25:18.821Z,84.42
2022-11-07T19:27:41.301Z,85.59
2022-11-07T19:30:03.543Z,84.91
2022-11-07T19:32:25.143Z,84.29
2022-11-07T19:34:46.737Z,84.36
2022-11-07T19:37:08.233Z,84.79
2022-11-07T19:39:32.690Z,85.60
2022-11-07T19:41:55.246Z,86.44
2022-11-07T19:44:16.748Z,86.70
2022-11-07T19:46:38.309Z,86.24
2022-11-07T19:48:59.808Z,85.96
2022-11-07T19:51:23.359Z,86.18
2022-11-07T19:53:45.000Z,86.16
2022-11-07T19:56:09.194Z,85.97
2022-11-07T19:58:30.717Z,86.18
2022-11-07T20:00:52.467Z,86.51
2022-11-07T20:03:14.226Z,87.08
2022-11-07T20:05:38.475Z,87.42
2022-11-07T20:08:05.037Z,88.16
2022-11-07T20:10:26.914Z,88.16
2022-11-07T20:12:48.895Z,88.40
2022-11-07T20:15:11.245Z,88.35
2022-11-07T20:17:32.718Z,87.53
2022-11-07T20:19:54.193Z,86.17
2022-11-07T20:22:15.679Z,86.04
2022-11-07T20:24:37.247Z,86.09
2022-11-07T20:26:58.743Z,86.48
2022-11-07T20:29:22.890Z,86.40
2022-11-07T20:31:45.306Z,85.66
2022-11-07T20:34:07.790Z,86.51
2022-11-07T20:36:31.182Z,85.66
2022-11-07T20:38:56.258Z,85.43
2022-11-07T20:41:17.866Z,85.54
2022-11-07T20:43:39.953Z,86.27
2022-11-07T20:46:13.047Z,86.38
2022-11-07T20:48:35.134Z,85.36
2022-11-07T20:50:56.595Z,85.71
2022-11-07T20:53:18.605Z,85.37
2022-11-07T20:55:42.675Z,85.14
2022-11-07T20:58:04.458Z,84.46
2022-11-07T21:00:25.988Z,84.49
2022-11-07T21:02:47.677Z,84.85
2022-11-07T21:05:17.719Z,85.35
2022-11-07T21:07:41.742Z,84.57
2022-11-07T21:10:03.366Z,84.57
2022-11-07T21:12:24.835Z,84.90
2022-11-07T21:14:46.287Z,84.92
2022-11-07T21:17:09.119Z,83.91
2022-11-07T21:19:30.679Z,84.61
2022-11-07T21:21:52.165Z,84.68
2022-11-07T21:24:13.641Z,84.36
2022-11-07T21:26:38.946Z,83.95
2022-11-07T21:29:02.136Z,84.36
2022-11-07T21:31:27.202Z,84.51
2022-11-07T21:33:48.680Z,84.99
2022-11-07T21:36:11.992Z,86.12
2022-11-07T21:38:33.478Z,87.33
2022-11-07T21:40:54.955Z,87.16
2022-11-07T21:43:16.639Z,86.21
2022-11-07T21:45:38.459Z,87.47
2022-11-07T21:47:59.929Z,87.85
2022-11-07T21:50:43.432Z,87.98
2022-11-07T21:53:02.854Z,88.17
2022-11-07T21:55:24.554Z,89.14
2022-11-07T21:57:46.402Z,89.29
2022-11-07T22:00:09.219Z,88.59
2022-11-07T22:02:30.793Z,88.68
2022-11-07T22:04:52.317Z,87.98
2022-11-07T22:07:13.794Z,88.73
2022-11-07T22:09:35.321Z,89.24
2022-11-07T22:11:56.850Z,89.50
2022-11-07T22:14:20.702Z,91.37
2022-11-07T22:16:42.558Z,90.35
2022-11-07T22:19:07.226Z,91.57
2022-11-07T22:21:31.519Z,91.42
2022-11-07T22:23:53.019Z,90.97
2022-11-07T22:26:17.010Z,90.83
2022-11-07T22:28:42.948Z,90.11
2022-11-07T22:31:09.534Z,90.56
2022-11-07T22:33:31.158Z,90.13
2022-11-07T22:35:52.689Z,90.56
2022-11-07T22:38:14.199Z,90.42
2022-11-07T22:40:35.690Z,90.64
2022-11-07T22:42:57.170Z,90.36
2022-11-07T22:45:18.653Z,90.13
2022-11-07T22:47:40.191Z,89.95
2022-11-07T22:50:01.668Z,89.59
2022-11-07T22:52:23.141Z,88.98
2022-11-07T22:54:44.620Z,88.75
2022-11-07T22:57:06.092Z,88.53
2022-11-07T22:59:27.635Z,88.46
2022-11-07T23:01:49.238Z,88.07
2022-11-07T23:04:15.076Z,88.19
2022-11-07T23:06:36.589Z,88.51
2022-11-07T23:08:59.408Z,88.46
2022-11-07T23:14:08.313Z,88.35
2022-11-07T23:16:35.165Z,89.56
2022-11-07T23:18:58.370Z,89.13
2022-11-07T23:21:20.925Z,88.97
2022-11-07T23:23:43.150Z,89.09
2022-11-07T23:26:07.433Z,87.88
2022-11-07T23:28:29.058Z,88.00
2022-11-07T23:30:52.157Z,87.81
2022-11-07T23:33:13.639Z,87.72
2022-11-07T23:35:35.110Z,88.54
2022-11-07T23:37:56.628Z,88.64
2022-11-07T23:40:18.103Z,89.08
2022-11-07T23:42:39.655Z,89.15
2022-11-07T23:45:19.791Z,89.65
2022-11-07T23:47:59.719Z,91.12
2022-11-07T23:50:39.684Z,91.58
2022-11-07T23:53:21.126Z,91.01
2022-11-07T23:55:42.578Z,90.98
2022-11-07T23:58:22.790Z,91.50
